Time;durP1;ratioP1;P1;durP2;ratioP2;P2;SDS_P1;SDS_P2;PMS_P1;PMS_P2;Temp;Humidity;BMP_temperature;BMP_pressure;BME280_temperature;BME280_humidity;BME280_pressure;Samples;Min_cycle;Max_cycle;Signal;HPM_P1;HPM_P2
2021/10/30 00:00:55;;;;;;;25.17;16.60;;;;;;;4.94;100.00;97677.00;5050973;28;20216;-65
2021/10/30 00:03:22;;;;;;;28.17;17.77;;;;;;;4.98;100.00;97672.44;5053808;28;20240;-65
2021/10/30 00:05:49;;;;;;;26.03;17.40;;;;;;;4.99;100.00;97661.03;5053522;28;20216;-65
2021/10/30 00:08:16;;;;;;;22.97;16.03;;;;;;;4.92;100.00;97665.78;5053227;28;20218;-65
2021/10/30 00:10:42;;;;;;;26.57;16.37;;;;;;;4.90;100.00;97657.13;5053799;28;20241;-66
2021/10/30 00:13:09;;;;;;;23.23;15.67;;;;;;;4.82;100.00;97664.56;5054257;28;20697;-66
2021/10/30 00:15:37;;;;;;;25.57;16.93;;;;;;;4.81;100.00;97657.66;5053411;28;20370;-65
2021/10/30 00:18:03;;;;;;;24.23;16.80;;;;;;;4.85;100.00;97655.72;5053478;28;20219;-65
2021/10/30 00:20:30;;;;;;;25.17;16.33;;;;;;;4.84;100.00;97662.69;5053246;28;20235;-65
2021/10/30 00:22:56;;;;;;;27.23;16.73;;;;;;;4.81;100.00;97662.88;5054329;28;20216;-63
2021/10/30 00:25:23;;;;;;;25.10;16.30;;;;;;;4.68;100.00;97664.47;5041358;28;20244;-65
2021/10/30 00:27:50;;;;;;;25.00;15.63;;;;;;;4.62;100.00;97672.66;5055652;28;20572;-66
2021/10/30 00:30:17;;;;;;;22.67;15.60;;;;;;;4.62;100.00;97667.41;5057274;28;20216;-65
2021/10/30 00:32:44;;;;;;;22.13;15.93;;;;;;;4.65;100.00;97667.22;5057951;28;20265;-65
2021/10/30 00:35:11;;;;;;;25.00;16.50;;;;;;;4.76;100.00;97664.06;5057028;28;20265;-66
2021/10/30 00:37:37;;;;;;;27.63;17.03;;;;;;;4.81;100.00;97656.78;5057070;28;20209;-65
2021/10/30 00:40:05;;;;;;;29.17;17.87;;;;;;;4.76;100.00;97651.81;5056951;28;20230;-65
2021/10/30 00:42:31;;;;;;;23.73;16.57;;;;;;;4.74;100.00;97651.06;5057491;28;20218;-65
2021/10/30 00:44:58;;;;;;;24.10;16.27;;;;;;;4.68;100.00;97646.16;5057548;28;20603;-65
2021/10/30 00:47:24;;;;;;;23.97;17.07;;;;;;;4.63;100.00;97655.16;5056860;28;20224;-65
2021/10/30 00:49:52;;;;;;;22.50;15.63;;;;;;;4.60;100.00;97658.81;5056822;28;20222;-66
2021/10/30 00:52:20;;;;;;;21.23;14.67;;;;;;;4.51;100.00;97658.41;5056846;28;20229;-65
2021/10/30 00:54:48;;;;;;;18.77;12.97;;;;;;;4.42;100.00;97654.53;5055452;28;20704;-65
2021/10/30 00:57:15;;;;;;;20.63;14.17;;;;;;;4.34;100.00;97651.47;5056769;28;20225;-65
2021/10/30 00:59:42;;;;;;;18.17;13.30;;;;;;;4.27;100.00;97644.03;5055180;28;20216;-65
2021/10/30 01:02:09;;;;;;;17.17;12.77;;;;;;;4.25;100.00;97638.88;5055017;28;20225;-66
2021/10/30 01:04:35;;;;;;;17.97;13.07;;;;;;;4.19;100.00;97636.56;5054212;28;20675;-65
2021/10/30 01:07:05;;;;;;;15.03;11.70;;;;;;;4.08;100.00;97632.81;5055481;28;20218;-66
2021/10/30 01:09:32;;;;;;;16.90;12.10;;;;;;;4.00;100.00;97635.84;5055477;28;20210;-66
2021/10/30 01:11:58;;;;;;;16.30;12.80;;;;;;;3.94;100.00;97633.53;5055171;28;20222;-65
2021/10/30 01:14:26;;;;;;;16.20;12.47;;;;;;;3.94;100.00;97630.06;5057138;28;20682;-65
2021/10/30 01:16:57;;;;;;;16.33;12.30;;;;;;;3.92;100.00;97631.91;5056188;28;20239;-65
2021/10/30 01:19:24;;;;;;;17.53;12.03;;;;;;;3.83;100.00;97629.75;5056109;28;20694;-65
2021/10/30 01:21:51;;;;;;;16.23;11.87;;;;;;;3.78;100.00;97630.00;5054798;28;20218;-65
2021/10/30 01:24:18;;;;;;;16.50;11.90;;;;;;;3.77;100.00;97625.69;5056811;28;20223;-65
2021/10/30 01:26:44;;;;;;;15.87;12.40;;;;;;;3.80;100.00;97611.63;5056070;28;20249;-66
2021/10/30 01:29:11;;;;;;;16.20;12.27;;;;;;;3.82;100.00;97610.63;5055926;28;20228;-66
2021/10/30 01:31:37;;;;;;;17.13;11.97;;;;;;;3.84;100.00;97611.38;5055988;28;20216;-65
2021/10/30 01:34:06;;;;;;;17.73;12.97;;;;;;;3.85;100.00;97607.84;5054441;28;20220;-66
2021/10/30 01:36:34;;;;;;;18.20;12.53;;;;;;;3.87;100.00;97597.31;5055357;28;20237;-66
2021/10/30 01:39:03;;;;;;;19.07;13.03;;;;;;;3.89;100.00;97606.78;5055877;28;20264;-66
2021/10/30 01:41:30;;;;;;;17.80;12.70;;;;;;;3.85;100.00;97602.63;5056667;28;20214;-66
2021/10/30 01:43:57;;;;;;;19.10;13.53;;;;;;;3.84;100.00;97602.72;5057192;28;20223;-66
2021/10/30 01:46:24;;;;;;;21.03;14.10;;;;;;;3.88;100.00;97602.47;5054363;28;20216;-66
2021/10/30 01:48:51;;;;;;;24.83;16.13;;;;;;;3.94;100.00;97591.72;5056322;28;20226;-66
2021/10/30 01:51:18;;;;;;;22.50;16.30;;;;;;;3.96;100.00;97587.22;5055918;28;20213;-66
2021/10/30 01:53:45;;;;;;;24.50;16.10;;;;;;;4.01;100.00;97580.00;5057108;28;20584;-66
2021/10/30 01:56:14;;;;;;;24.83;15.63;;;;;;;4.04;100.00;97579.00;5056042;28;20243;-66
2021/10/30 01:58:40;;;;;;;20.83;14.60;;;;;;;4.04;100.00;97582.44;5055975;28;20241;-66
2021/10/30 02:01:08;;;;;;;25.30;16.40;;;;;;;4.03;100.00;97588.59;5054471;28;20210;-66
2021/10/30 02:03:35;;;;;;;25.50;16.53;;;;;;;4.03;100.00;97593.00;5054697;28;20218;-66
2021/10/30 02:06:04;;;;;;;24.20;16.17;;;;;;;4.06;100.00;97588.47;5055710;28;20225;-66
2021/10/30 02:08:31;;;;;;;23.93;15.63;;;;;;;4.06;100.00;97591.06;5055817;28;20222;-66
2021/10/30 02:10:57;;;;;;;24.07;15.77;;;;;;;4.09;100.00;97588.28;5055660;28;20245;-66
2021/10/30 02:13:26;;;;;;;23.10;15.87;;;;;;;4.10;100.00;97573.47;5052767;28;20219;-66
2021/10/30 02:15:53;;;;;;;22.43;16.57;;;;;;;4.16;100.00;97581.81;5055580;28;20247;-66
2021/10/30 02:18:20;;;;;;;23.97;15.57;;;;;;;4.15;100.00;97571.44;5055546;28;20268;-66
2021/10/30 02:20:47;;;;;;;25.30;16.53;;;;;;;4.17;100.00;97570.41;5055174;28;20226;-66
2021/10/30 02:23:14;;;;;;;22.43;15.57;;;;;;;4.19;100.00;97567.72;5053784;28;20221;-66
2021/10/30 02:25:40;;;;;;;21.90;16.13;;;;;;;4.22;100.00;97570.19;5055346;28;20331;-66
2021/10/30 02:28:07;;;;;;;23.97;15.43;;;;;;;4.15;100.00;97567.03;5055422;28;20219;-66
2021/10/30 02:30:35;;;;;;;25.13;16.00;;;;;;;4.18;100.00;97556.44;5054941;28;20675;-66
2021/10/30 02:33:01;;;;;;;22.77;16.03;;;;;;;4.07;100.00;97548.31;5056276;28;20685;-66
2021/10/30 02:35:28;;;;;;;20.20;14.50;;;;;;;4.02;100.00;97545.09;5055110;28;20597;-66
2021/10/30 02:37:55;;;;;;;21.93;15.63;;;;;;;3.97;100.00;97549.72;5053423;28;20212;-66
2021/10/30 02:40:21;;;;;;;22.53;15.13;;;;;;;3.93;100.00;97550.81;5054987;28;20214;-66
2021/10/30 02:42:48;;;;;;;21.77;14.77;;;;;;;3.94;100.00;97546.41;5056478;28;20573;-66
2021/10/30 02:45:14;;;;;;;23.27;15.23;;;;;;;3.98;100.00;97537.50;5055010;28;20219;-66
2021/10/30 02:47:42;;;;;;;23.27;15.93;;;;;;;3.97;100.00;97531.41;5054248;28;20221;-67
2021/10/30 02:50:09;;;;;;;24.37;16.40;;;;;;;3.96;100.00;97537.56;5054567;28;20706;-67
2021/10/30 02:52:36;;;;;;;23.83;15.90;;;;;;;3.98;100.00;97533.09;5055914;28;20221;-66
2021/10/30 02:55:02;;;;;;;24.97;16.33;;;;;;;3.99;100.00;97529.56;5054862;28;20581;-67
2021/10/30 02:57:29;;;;;;;22.67;15.00;;;;;;;3.98;100.00;97527.03;5054784;28;20235;-66
2021/10/30 02:59:55;;;;;;;23.00;14.93;;;;;;;3.96;100.00;97523.63;5054498;28;20218;-66
2021/10/30 03:02:22;;;;;;;20.37;14.23;;;;;;;3.91;100.00;97526.50;5054834;28;20218;-66
2021/10/30 03:04:50;;;;;;;22.40;15.33;;;;;;;3.91;100.00;97520.44;5053174;28;20217;-66
2021/10/30 03:07:18;;;;;;;22.80;16.17;;;;;;;3.96;100.00;97511.41;5054690;28;20219;-66
2021/10/30 03:09:49;;;;;;;21.00;14.73;;;;;;;3.97;100.00;97504.44;5054654;28;20221;-66
2021/10/30 03:12:15;;;;;;;23.17;14.53;;;;;;;3.92;100.00;97498.59;5054928;28;20222;-66
2021/10/30 03:14:42;;;;;;;21.57;14.87;;;;;;;3.92;100.00;97491.59;5054635;28;20212;-66
2021/10/30 03:17:08;;;;;;;21.03;14.83;;;;;;;3.87;100.00;97493.63;5054570;28;20242;-66
2021/10/30 03:19:35;;;;;;;23.83;15.90;;;;;;;3.87;100.00;97493.63;5054536;28;20242;-66
2021/10/30 03:22:03;;;;;;;22.10;15.23;;;;;;;3.87;100.00;97492.78;5055598;28;20214;-66
2021/10/30 03:24:29;;;;;;;21.93;14.43;;;;;;;3.91;100.00;97487.28;5054308;28;20214;-66
2021/10/30 03:26:56;;;;;;;21.60;15.23;;;;;;;3.87;100.00;97487.53;5054541;28;20241;-66
2021/10/30 03:29:22;;;;;;;21.53;13.77;;;;;;;3.85;100.00;97489.41;5054363;28;20215;-66
2021/10/30 03:31:49;;;;;;;22.90;14.70;;;;;;;3.85;100.00;97487.63;5053905;28;20217;-66
2021/10/30 03:34:15;;;;;;;23.07;15.40;;;;;;;3.85;100.00;97487.63;5054236;28;20210;-66
2021/10/30 03:36:42;;;;;;;21.00;14.47;;;;;;;3.85;100.00;97478.94;5054195;28;20240;-66
2021/10/30 03:39:10;;;;;;;21.00;15.10;;;;;;;3.80;100.00;97479.16;5054245;28;20219;-66
2021/10/30 03:41:36;;;;;;;22.27;13.93;;;;;;;3.80;100.00;97481.78;5055688;28;20233;-66
2021/10/30 03:44:03;;;;;;;21.53;14.33;;;;;;;3.78;100.00;97467.97;5054277;28;20219;-66
2021/10/30 03:46:29;;;;;;;20.90;14.53;;;;;;;3.78;100.00;97467.97;5054327;28;20229;-66
2021/10/30 03:48:56;;;;;;;19.97;14.87;;;;;;;3.72;100.00;97473.50;5053915;28;20689;-66
2021/10/30 03:51:22;;;;;;;18.53;13.40;;;;;;;3.75;100.00;97478.59;5055007;28;20309;-66
2021/10/30 03:53:49;;;;;;;22.43;14.37;;;;;;;3.74;100.00;97468.22;5054312;28;20214;-66
2021/10/30 03:56:16;;;;;;;20.23;13.83;;;;;;;3.72;100.00;97457.00;5052279;28;20232;-66
2021/10/30 03:58:43;;;;;;;21.03;14.57;;;;;;;3.69;100.00;97457.16;5054496;28;20221;-66
2021/10/30 04:01:10;;;;;;;19.77;13.90;;;;;;;3.68;100.00;97451.06;5057221;28;20217;-65
2021/10/30 04:03:36;;;;;;;22.33;14.80;;;;;;;3.73;100.00;97451.69;5058404;28;20214;-66
2021/10/30 04:06:03;;;;;;;22.43;15.03;;;;;;;3.72;100.00;97447.38;5058026;28;20219;-66
2021/10/30 04:08:30;;;;;;;19.43;14.07;;;;;;;3.68;100.00;97456.28;5058272;28;20298;-66
2021/10/30 04:10:56;;;;;;;18.90;14.17;;;;;;;3.63;100.00;97447.88;5058112;28;20595;-66
2021/10/30 04:13:24;;;;;;;19.57;13.87;;;;;;;3.57;100.00;97437.75;5059033;28;20214;-66
2021/10/30 04:15:51;;;;;;;20.97;13.80;;;;;;;3.48;100.00;97440.81;5057597;28;20242;-66
2021/10/30 04:18:17;;;;;;;19.43;13.10;;;;;;;3.39;100.00;97428.25;5057703;28;20673;-66
2021/10/30 04:20:44;;;;;;;16.57;12.63;;;;;;;3.28;100.00;97435.78;5057884;28;20222;-65
2021/10/30 04:23:10;;;;;;;16.60;11.63;;;;;;;3.20;100.00;97431.88;5057237;28;20212;-66
2021/10/30 04:25:37;;;;;;;16.43;12.53;;;;;;;3.14;100.00;97429.59;5056428;28;20591;-66
2021/10/30 04:28:03;;;;;;;16.70;12.63;;;;;;;3.07;100.00;97421.22;5057404;28;20216;-66
2021/10/30 04:30:31;;;;;;;15.77;12.40;;;;;;;2.96;100.00;97423.56;5057574;28;20216;-66
2021/10/30 04:32:58;;;;;;;15.30;11.53;;;;;;;2.89;100.00;97410.88;5058919;28;20212;-66
2021/10/30 04:35:25;;;;;;;16.30;11.43;;;;;;;2.82;100.00;97415.53;5057316;28;20217;-65
2021/10/30 04:37:51;;;;;;;16.33;11.90;;;;;;;2.76;100.00;97399.38;5057447;28;20241;-66
2021/10/30 04:40:18;;;;;;;13.83;10.57;;;;;;;2.73;100.00;97400.38;5057132;28;20211;-66
2021/10/30 04:42:44;;;;;;;14.43;10.50;;;;;;;2.69;100.00;97398.81;5058767;28;20221;-66
2021/10/30 04:45:11;;;;;;;14.03;10.90;;;;;;;2.66;100.00;97398.13;5057481;28;20222;-66
2021/10/30 04:47:39;;;;;;;13.80;10.57;;;;;;;2.69;100.00;97390.16;5056722;28;20592;-65
2021/10/30 04:50:06;;;;;;;13.70;10.97;;;;;;;2.72;100.00;97387.38;5056660;28;20212;-66
2021/10/30 04:52:32;;;;;;;17.10;12.57;;;;;;;2.82;100.00;97386.84;5057519;28;20222;-66
2021/10/30 04:54:59;;;;;;;15.67;11.80;;;;;;;2.78;100.00;97382.72;5057017;28;20226;-65
2021/10/30 04:57:25;;;;;;;16.67;11.77;;;;;;;2.76;100.00;97396.75;5056984;28;20241;-66
2021/10/30 04:59:52;;;;;;;14.30;11.07;;;;;;;2.69;100.00;97398.00;5056981;28;20586;-65
2021/10/30 05:02:18;;;;;;;17.27;11.77;;;;;;;2.70;100.00;97381.41;5056921;28;20219;-65
2021/10/30 05:04:46;;;;;;;17.63;12.23;;;;;;;2.71;100.00;97378.72;5056849;28;20214;-66
2021/10/30 05:07:13;;;;;;;18.00;12.77;;;;;;;2.73;100.00;97387.31;5056777;28;20604;-66
2021/10/30 05:09:39;;;;;;;19.03;13.27;;;;;;;2.78;100.00;97376.66;5056934;28;20221;-66
2021/10/30 05:12:07;;;;;;;21.47;14.27;;;;;;;2.84;100.00;97379.81;5057361;28;20212;-66
2021/10/30 05:14:33;;;;;;;18.23;13.43;;;;;;;2.90;100.00;97382.09;5055296;28;20220;-66
2021/10/30 05:17:00;;;;;;;21.30;13.60;;;;;;;3.00;100.00;97372.03;5056641;28;20599;-65
2021/10/30 05:19:26;;;;;;;19.17;13.67;;;;;;;2.98;100.00;97364.28;5056692;28;20266;-66
2021/10/30 05:21:54;;;;;;;19.90;14.17;;;;;;;3.00;100.00;97365.03;5057745;28;20218;-66
2021/10/30 05:24:21;;;;;;;17.20;12.93;;;;;;;2.98;100.00;97364.28;5043072;28;20217;-65
2021/10/30 05:26:47;;;;;;;17.67;13.07;;;;;;;2.96;100.00;97371.34;5056671;28;20710;-66
2021/10/30 05:29:14;;;;;;;18.87;12.37;;;;;;;2.97;100.00;97373.03;5056464;28;20691;-66
2021/10/30 05:31:40;;;;;;;21.17;13.97;;;;;;;2.97;100.00;97375.66;5057286;28;20217;-66
2021/10/30 05:34:07;;;;;;;22.53;13.60;;;;;;;2.97;100.00;97372.19;5056396;28;20291;-66
2021/10/30 05:36:36;;;;;;;21.17;13.60;;;;;;;2.96;100.00;97360.91;5056106;28;20256;-65
2021/10/30 05:39:06;;;;;;;21.03;13.57;;;;;;;2.98;100.00;97363.41;5056365;28;20221;-66
2021/10/30 05:41:33;;;;;;;19.87;13.77;;;;;;;2.97;100.00;97357.38;5055709;28;20304;-66
2021/10/30 05:43:59;;;;;;;21.77;13.27;;;;;;;2.95;100.00;97348.75;5042924;28;20216;-66
2021/10/30 05:46:26;;;;;;;20.57;13.20;;;;;;;2.92;100.00;97342.84;5056214;28;20213;-66
2021/10/30 05:48:53;;;;;;;20.20;13.13;;;;;;;2.85;100.00;97347.56;5055966;28;20225;-66
2021/10/30 05:51:20;;;;;;;17.43;12.50;;;;;;;2.83;100.00;97338.13;5057085;28;20299;-66
2021/10/30 05:53:47;;;;;;;18.17;12.40;;;;;;;2.77;100.00;97339.28;5055996;28;20672;-66
2021/10/30 05:56:15;;;;;;;17.00;12.00;;;;;;;2.72;100.00;97346.50;5055872;28;20222;-65
2021/10/30 05:58:41;;;;;;;16.10;11.77;;;;;;;2.72;100.00;97337.81;5055746;28;20214;-65
2021/10/30 06:01:07;;;;;;;17.07;12.17;;;;;;;2.73;100.00;97350.78;5054988;28;20214;-65
2021/10/30 06:03:34;;;;;;;17.10;12.80;;;;;;;2.72;100.00;97367.38;5056431;28;20226;-66
2021/10/30 06:06:01;;;;;;;17.83;13.53;;;;;;;2.77;100.00;97367.13;5053707;28;20225;-66
2021/10/30 06:08:27;;;;;;;20.30;14.20;;;;;;;2.81;100.00;97364.28;5055780;28;20263;-65
2021/10/30 06:10:54;;;;;;;20.87;13.73;;;;;;;2.83;100.00;97365.06;5055289;28;20736;-65
2021/10/30 06:13:22;;;;;;;21.47;14.03;;;;;;;2.97;100.00;97344.31;5056396;28;20223;-66
2021/10/30 06:15:49;;;;;;;20.93;14.57;;;;;;;3.04;100.00;97335.25;5055337;28;20215;-66
2021/10/30 06:18:16;;;;;;;20.13;13.63;;;;;;;3.01;100.00;97327.56;5055455;28;20237;-66
2021/10/30 06:20:42;;;;;;;16.90;12.70;;;;;;;3.00;100.00;97328.50;5055324;28;20600;-66
2021/10/30 06:23:11;;;;;;;17.67;13.20;;;;;;;3.03;100.00;97320.53;5054217;28;20208;-66
2021/10/30 06:25:40;;;;;;;18.27;12.57;;;;;;;2.97;100.00;97305.19;5055495;28;20251;-66
2021/10/30 06:28:06;;;;;;;15.53;11.40;;;;;;;2.99;100.00;97295.50;5055262;28;20695;-66
2021/10/30 06:30:34;;;;;;;18.03;12.50;;;;;;;2.99;100.00;97298.09;5055037;28;20212;-65
2021/10/30 06:33:01;;;;;;;18.17;11.57;;;;;;;2.96;100.00;97298.28;5052745;28;20216;-66
2021/10/30 06:35:27;;;;;;;16.53;11.33;;;;;;;2.99;100.00;97307.72;5055367;28;20213;-66
2021/10/30 06:37:56;;;;;;;14.63;11.70;;;;;;;3.02;100.00;97303.19;5055093;28;20244;-66
2021/10/30 06:40:23;;;;;;;15.70;12.27;;;;;;;3.08;100.00;97289.81;5055200;28;20295;-66
2021/10/30 06:42:49;;;;;;;19.33;12.97;;;;;;;3.09;100.00;97291.47;5053917;28;20219;-66
2021/10/30 06:45:16;;;;;;;17.97;13.73;;;;;;;3.10;100.00;97295.78;5055144;28;20255;-66
2021/10/30 06:47:44;;;;;;;14.93;11.30;;;;;;;3.17;100.00;97278.84;5054872;28;20212;-66
2021/10/30 06:50:19;;;;;;;16.63;11.63;;;;;;;3.23;100.00;97281.13;5054658;28;20225;-66
2021/10/30 06:52:47;;;;;;;16.23;11.27;;;;;;;3.27;100.00;97285.28;5054591;28;20224;-66
2021/10/30 06:55:14;;;;;;;14.87;11.90;;;;;;;3.35;100.00;97285.69;5054711;28;20296;-66
2021/10/30 06:57:41;;;;;;;18.70;12.47;;;;;;;3.41;100.00;97285.38;5054011;28;20238;-66
2021/10/30 07:00:09;;;;;;;17.23;12.60;;;;;;;3.53;100.00;97291.69;5053453;28;20210;-66
2021/10/30 07:02:37;;;;;;;18.53;13.10;;;;;;;3.60;100.00;97275.59;5054589;28;20225;-66
2021/10/30 07:05:06;;;;;;;18.37;13.00;;;;;;;3.75;100.00;97277.38;5054793;28;20223;-66
2021/10/30 07:07:33;;;;;;;19.03;13.63;;;;;;;3.85;100.00;97282.94;5054791;28;20298;-66
2021/10/30 07:10:00;;;;;;;21.30;15.17;;;;;;;4.01;100.00;97276.75;5055101;28;20217;-66
2021/10/30 07:12:27;;;;;;;19.00;13.00;;;;;;;4.12;100.00;97276.97;5054936;28;20225;-66
2021/10/30 07:14:53;;;;;;;17.20;12.67;;;;;;;4.24;100.00;97291.13;5054520;28;20280;-66
2021/10/30 07:17:20;;;;;;;18.97;13.13;;;;;;;4.34;100.00;97290.50;5054431;28;20296;-66
2021/10/30 07:19:47;;;;;;;18.30;12.90;;;;;;;4.51;100.00;97292.97;5054515;28;20683;-66
2021/10/30 07:22:15;;;;;;;16.87;12.30;;;;;;;4.68;100.00;97292.84;5055208;28;20273;-66
2021/10/30 07:24:43;;;;;;;19.33;13.03;;;;;;;4.77;100.00;97284.41;5052344;28;20217;-66
2021/10/30 07:27:09;;;;;;;17.30;11.97;;;;;;;4.91;100.00;97297.53;5054038;28;20625;-66
2021/10/30 07:29:36;;;;;;;17.37;12.03;;;;;;;4.98;100.00;97291.00;5054532;28;20215;-66
2021/10/30 07:32:03;;;;;;;15.53;11.67;;;;;;;5.10;100.00;97302.50;5055087;28;20219;-67
2021/10/30 07:34:29;;;;;;;16.13;12.47;;;;;;;5.20;100.00;97299.22;5053805;28;20212;-67
2021/10/30 07:36:56;;;;;;;17.60;12.60;;;;;;;5.28;100.00;97302.25;5054347;28;20232;-67
2021/10/30 07:39:24;;;;;;;17.37;12.33;;;;;;;5.38;100.00;97298.09;5051855;28;20611;-68
2021/10/30 07:41:50;;;;;;;14.40;11.07;;;;;;;5.47;100.00;97301.94;5051498;28;20215;-66
2021/10/30 07:44:18;;;;;;;16.20;12.10;;;;;;;5.61;100.00;97288.81;5053186;28;20215;-66
2021/10/30 07:46:44;;;;;;;18.13;12.60;;;;;;;5.73;100.00;97283.63;5053222;28;20277;-67
2021/10/30 07:49:11;;;;;;;16.30;11.57;;;;;;;5.89;100.00;97283.53;5050692;28;20681;-67
2021/10/30 07:51:37;;;;;;;16.20;12.00;;;;;;;6.00;100.00;97270.56;5055052;28;20215;-67
2021/10/30 07:54:04;;;;;;;14.07;10.73;;;;;;;6.01;100.00;97270.47;5057542;28;20222;-66
2021/10/30 07:56:32;;;;;;;14.43;10.60;;;;;;;5.97;100.00;97271.63;5057572;28;20212;-66
2021/10/30 07:58:58;;;;;;;12.53;10.27;;;;;;;5.86;100.00;97273.25;5057320;28;20231;-66
2021/10/30 08:01:25;;;;;;;13.97;10.07;;;;;;;5.93;100.00;97271.91;5060467;28;20204;-65
2021/10/30 08:03:51;;;;;;;13.93;10.67;;;;;;;6.00;100.00;97258.31;5058084;28;20211;-66
2021/10/30 08:06:18;;;;;;;15.87;11.80;;;;;;;6.00;100.00;97266.19;5057346;28;20230;-66
2021/10/30 08:08:44;;;;;;;14.83;11.27;;;;;;;6.11;100.00;97263.69;5056933;28;20212;-65
2021/10/30 08:11:11;;;;;;;12.70;10.43;;;;;;;6.17;100.00;97260.66;5059898;28;20216;-65
2021/10/30 08:13:39;;;;;;;14.73;11.43;;;;;;;6.25;100.00;97242.66;5058581;28;20219;-65
2021/10/30 08:16:06;;;;;;;16.73;11.93;;;;;;;6.42;100.00;97252.84;5055446;28;20303;-65
2021/10/30 08:18:32;;;;;;;15.50;11.90;;;;;;;6.57;100.00;97245.72;5056721;28;20242;-65
2021/10/30 08:20:59;;;;;;;18.67;12.90;;;;;;;6.69;100.00;97245.75;5059444;28;20222;-63
2021/10/30 08:23:25;;;;;;;15.93;11.60;;;;;;;6.84;100.00;97244.69;5058601;28;20666;-64
2021/10/30 08:25:52;;;;;;;16.70;11.87;;;;;;;6.97;100.00;97244.72;5056690;28;20244;-64
2021/10/30 08:28:19;;;;;;;15.70;11.93;;;;;;;7.13;100.00;97235.66;5057090;28;20220;-64
2021/10/30 08:30:46;;;;;;;15.63;11.60;;;;;;;7.25;100.00;97240.06;5058871;28;20220;-65
2021/10/30 08:33:13;;;;;;;14.03;10.97;;;;;;;7.38;100.00;97248.75;5059333;28;20211;-65
2021/10/30 08:35:40;;;;;;;16.17;11.60;;;;;;;7.44;100.00;97246.56;5057019;28;20212;-65
2021/10/30 08:38:09;;;;;;;14.23;11.70;;;;;;;7.51;100.00;97255.69;5056933;28;20593;-66
2021/10/30 08:40:36;;;;;;;16.23;11.47;;;;;;;7.59;100.00;97270.94;5058933;28;20291;-65
2021/10/30 08:43:03;;;;;;;15.07;11.27;;;;;;;7.64;100.00;97269.63;5057543;28;20213;-64
2021/10/30 08:45:31;;;;;;;14.73;11.33;;;;;;;7.70;100.00;97278.88;5056849;28;20220;-64
2021/10/30 08:48:00;;;;;;;14.90;11.50;;;;;;;7.69;100.00;97269.31;5060022;28;20223;-64
2021/10/30 08:50:27;;;;;;;13.57;11.07;;;;;;;7.76;100.00;97262.66;5062456;28;20213;-64
2021/10/30 08:52:54;;;;;;;13.77;11.40;;;;;;;7.81;100.00;97250.88;5062475;28;20211;-64
2021/10/30 08:55:20;;;;;;;15.80;11.37;;;;;;;7.84;100.00;97248.00;5060340;28;20226;-64
2021/10/30 08:57:47;;;;;;;14.67;11.33;;;;;;;7.89;100.00;97242.44;5060151;28;20260;-64
2021/10/30 09:00:21;;;;;;;12.80;10.53;;;;;;;7.95;100.00;97249.88;5061777;28;20212;-63
2021/10/30 09:02:55;;;;;;;13.90;10.47;;;;;;;8.02;100.00;97253.75;5061874;28;20300;-64
2021/10/30 09:05:25;;;;;;;12.87;10.30;;;;;;;8.14;100.00;97231.78;5058919;28;20587;-65
2021/10/30 09:07:53;;;;;;;13.13;10.27;;;;;;;8.25;100.00;97229.22;5059251;28;20218;-64
2021/10/30 09:10:21;;;;;;;12.90;10.37;;;;;;;8.27;100.00;97222.06;5054084;28;20216;-65
2021/10/30 09:12:50;;;;;;;12.93;10.47;;;;;;;8.34;100.00;97234.63;5059183;28;20215;-64
2021/10/30 09:15:19;;;;;;;11.93;9.57;;;;;;;8.53;100.00;97234.13;5059277;28;20675;-64
2021/10/30 09:17:46;;;;;;;13.47;9.93;;;;;;;8.63;100.00;97229.84;5059803;28;20241;-64
2021/10/30 09:20:15;;;;;;;11.23;9.47;;;;;;;8.71;100.00;97230.94;5063009;28;20271;-64
2021/10/30 09:22:56;;;;;;;11.37;9.83;;;;;;;8.75;100.00;97234.19;5056823;28;20226;-64
2021/10/30 09:25:23;;;;;;;11.67;9.80;;;;;;;8.74;100.00;97219.31;5059180;28;20246;-64
2021/10/30 09:27:55;;;;;;;12.23;10.10;;;;;;;8.74;100.00;97221.94;5061436;28;20223;-64
2021/10/30 09:30:25;;;;;;;11.40;9.33;;;;;;;8.70;100.00;97225.78;5060520;28;20734;-65
2021/10/30 09:32:53;;;;;;;10.27;8.90;;;;;;;8.68;100.00;97222.41;5050570;28;20238;-65
2021/10/30 09:35:31;;;;;;;12.73;9.57;;;;;;;8.74;100.00;97216.66;5057425;28;20220;-65
2021/10/30 09:37:59;;;;;;;14.20;9.83;;;;;;;8.80;100.00;97232.00;5055567;28;20245;-64
2021/10/30 09:40:28;;;;;;;11.80;9.23;;;;;;;8.80;100.00;97239.91;5058757;28;20229;-64
2021/10/30 09:43:13;;;;;;;13.77;9.73;;;;;;;8.76;100.00;97241.13;5059020;28;20302;-64
2021/10/30 09:45:42;;;;;;;11.07;9.10;;;;;;;8.78;100.00;97231.28;5061874;28;20687;-64
2021/10/30 09:48:10;;;;;;;11.93;9.00;;;;;;;8.83;100.00;97231.78;5059579;28;20298;-67
2021/10/30 09:50:37;;;;;;;11.33;9.53;;;;;;;8.89;100.00;97233.97;5058625;28;20218;-65
2021/10/30 09:53:30;;;;;;;11.00;9.00;;;;;;;8.96;100.00;97243.91;5058756;28;20225;-64
2021/10/30 09:55:59;;;;;;;11.13;8.37;;;;;;;9.06;100.00;97239.59;5057517;28;20221;-64
2021/10/30 09:58:32;;;;;;;13.40;9.67;;;;;;;9.14;99.81;97241.66;5049711;28;20245;-64
2021/10/30 10:01:01;;;;;;;12.03;9.73;;;;;;;9.21;99.04;97240.22;5056727;28;20224;-64
2021/10/30 10:03:30;;;;;;;11.20;9.47;;;;;;;9.26;96.78;97230.16;5053973;28;20215;-64
2021/10/30 10:05:58;;;;;;;11.43;9.40;;;;;;;9.33;94.80;97233.97;5055650;28;20695;-64
2021/10/30 10:08:26;;;;;;;12.33;10.10;;;;;;;9.40;93.53;97235.19;5058253;28;20235;-64
2021/10/30 10:10:55;;;;;;;11.70;9.30;;;;;;;9.43;92.74;97234.94;5058585;28;20287;-65
2021/10/30 10:13:22;;;;;;;10.83;8.80;;;;;;;9.37;93.62;97224.88;5062055;28;20213;-64
2021/10/30 10:15:50;;;;;;;11.80;9.13;;;;;;;9.37;94.61;97235.44;5058162;28;20214;-65
2021/10/30 10:18:16;;;;;;;11.57;9.43;;;;;;;9.37;94.82;97233.63;5058257;28;20268;-64
2021/10/30 10:20:43;;;;;;;11.87;9.73;;;;;;;9.32;96.30;97241.06;5058802;28;20592;-65
2021/10/30 10:23:10;;;;;;;14.30;10.00;;;;;;;9.35;95.59;97240.81;5061739;28;20217;-65
2021/10/30 10:25:49;;;;;;;11.47;9.37;;;;;;;9.40;95.66;97249.22;5055347;28;20239;-64
2021/10/30 10:28:29;;;;;;;11.00;9.30;;;;;;;9.45;95.28;97254.13;5056457;28;20215;-65
2021/10/30 10:30:59;;;;;;;12.27;9.90;;;;;;;9.47;95.06;97254.81;5061799;28;20617;-64
2021/10/30 10:33:27;;;;;;;14.07;10.27;;;;;;;9.54;94.54;97253.41;5058036;28;20219;-64
2021/10/30 10:36:28;;;;;;;12.40;9.60;;;;;;;9.54;94.39;97245.50;5058112;28;20242;-64
2021/10/30 10:39:23;;;;;;;10.87;9.50;;;;;;;9.50;95.15;97259.88;5054263;28;20236;-64
2021/10/30 10:42:08;;;;;;;11.60;9.50;;;;;;;9.54;95.93;97256.06;5050369;28;20304;-64
2021/10/30 10:45:01;;;;;;;12.57;10.20;;;;;;;9.61;93.62;97251.97;5060557;28;20224;-64
2021/10/30 10:47:58;;;;;;;11.97;8.50;;;;;;;9.69;93.84;97233.72;5056794;28;20222;-64
2021/10/30 10:50:29;;;;;;;12.20;9.63;;;;;;;9.78;94.10;97235.63;5059954;28;20226;-64
2021/10/30 10:53:24;;;;;;;11.27;9.10;;;;;;;9.76;93.98;97229.63;5059388;28;20216;-64
2021/10/30 10:56:19;;;;;;;10.70;8.33;;;;;;;9.79;94.25;97234.66;5050309;28;20630;-65
2021/10/30 10:59:18;;;;;;;11.60;9.13;;;;;;;9.76;92.95;97226.97;5055402;28;20234;-65
2021/10/30 11:02:20;;;;;;;11.17;8.83;;;;;;;9.73;94.48;97228.06;5057335;28;20219;-64
2021/10/30 11:05:23;;;;;;;8.57;7.27;;;;;;;9.77;95.82;97220.75;5056292;28;20221;-64
2021/10/30 11:08:16;;;;;;;11.30;9.27;;;;;;;9.80;97.48;97217.88;5053090;28;20276;-64
2021/10/30 11:10:43;;;;;;;12.10;8.77;;;;;;;9.79;98.34;97224.94;5054969;28;20222;-65
2021/10/30 11:13:11;;;;;;;10.10;9.00;;;;;;;9.77;99.05;97241.84;5048657;28;20560;-65
2021/10/30 11:15:42;;;;;;;10.97;8.63;;;;;;;9.77;99.52;97255.91;5057056;28;20223;-65
2021/10/30 11:18:19;;;;;;;9.73;8.23;;;;;;;9.76;99.35;97269.19;5060594;28;20724;-64
2021/10/30 11:20:49;;;;;;;11.83;9.97;;;;;;;9.75;99.03;97259.63;5053614;28;20214;-65
2021/10/30 11:23:28;;;;;;;11.27;8.67;;;;;;;9.75;99.23;97251.69;5057082;28;20219;-65
2021/10/30 11:25:56;;;;;;;11.70;8.73;;;;;;;9.76;98.93;97242.81;5059552;28;20257;-65